createdAt,value
2023-03-06T00:04:44.081Z,0.98
2023-03-06T00:09:44.072Z,0.99
2023-03-06T00:14:44.100Z,0.98
2023-03-06T00:24:44.073Z,0.9
2023-03-06T00:34:44.091Z,0.89
2023-03-06T00:44:44.070Z,0.88
2023-03-06T00:54:44.082Z,0.83
2023-03-06T01:14:44.066Z,0.82
2023-03-06T01:34:44.042Z,0.71
2023-03-06T01:44:44.061Z,0.68
2023-03-06T01:49:44.123Z,0.67
2023-03-06T01:54:44.057Z,0.66
2023-03-06T01:59:44.068Z,0.67
2023-03-06T02:04:44.043Z,0.67
2023-03-06T02:09:44.045Z,0.65
2023-03-06T02:14:44.068Z,0.65
2023-03-06T02:19:44.055Z,0.67
2023-03-06T02:24:54.078Z,0.67
2023-03-06T02:29:44.060Z,0.7
2023-03-06T02:34:44.127Z,0.68
2023-03-06T02:39:46.013Z,0.68
2023-03-06T02:44:44.123Z,0.64
2023-03-06T02:49:44.066Z,0.61
2023-03-06T02:54:44.019Z,0.59
2023-03-06T02:59:44.034Z,0.58
2023-03-06T03:04:44.102Z,0.58
2023-03-06T03:09:44.045Z,0.6
2023-03-06T03:14:44.075Z,0.51
2023-03-06T03:19:44.082Z,0.38
2023-03-06T03:24:44.022Z,0.27
2023-03-06T03:29:44.037Z,0.11
2023-03-06T03:34:44.065Z,-0.02
2023-03-06T03:39:44.078Z,-0.13
2023-03-06T03:44:44.044Z,-0.23
2023-03-06T03:49:44.028Z,-0.33
2023-03-06T03:54:44.024Z,-0.37
2023-03-06T03:59:44.019Z,-0.35
2023-03-06T04:04:44.074Z,-0.29
2023-03-06T04:09:44.036Z,-0.27
2023-03-06T04:14:44.029Z,-0.28
2023-03-06T04:19:54.079Z,-0.27
2023-03-06T04:24:49.023Z,-0.24
2023-03-06T04:29:54.008Z,-0.21
2023-03-06T04:34:44.035Z,-0.2
2023-03-06T04:39:44.159Z,-0.19
2023-03-06T04:44:43.994Z,-0.16
2023-03-06T04:54:43.986Z,-0.08
2023-03-06T04:59:44.015Z,-0.02
2023-03-06T05:04:44.003Z,0.09
2023-03-06T05:09:54.062Z,0.24
2023-03-06T05:14:44.617Z,0.31
2023-03-06T05:19:44.170Z,0.41
2023-03-06T05:24:43.977Z,0.51
2023-03-06T05:29:44.043Z,0.54
2023-03-06T05:34:45.260Z,0.51
2023-03-06T05:39:44.092Z,0.47
2023-03-06T05:44:44.041Z,0.46
2023-03-06T05:49:43.984Z,0.45
2023-03-06T05:54:43.968Z,0.45
2023-03-06T05:59:46.250Z,0.47
2023-03-06T06:04:43.993Z,0.52
2023-03-06T06:09:43.992Z,0.52
2023-03-06T06:14:53.989Z,0.58
2023-03-06T06:19:43.984Z,0.65
2023-03-06T06:24:44.014Z,0.71
2023-03-06T06:29:43.964Z,0.82
2023-03-06T06:39:44.065Z,1.14
2023-03-06T06:44:44.036Z,1.29
2023-03-06T06:49:44.013Z,1.4
2023-03-06T06:54:43.987Z,1.7
2023-03-06T06:59:44.009Z,1.91
2023-03-06T07:04:56.443Z,2.14
2023-03-06T07:09:44.087Z,2.32
2023-03-06T07:14:43.971Z,2.46
2023-03-06T07:19:43.920Z,2.61
2023-03-06T07:24:43.981Z,2.77
2023-03-06T07:29:44.000Z,2.95
2023-03-06T07:34:43.987Z,3.12
2023-03-06T07:39:43.982Z,3.27
2023-03-06T07:44:43.966Z,3.52
2023-03-06T07:49:54.010Z,3.79
2023-03-06T07:54:43.942Z,4.1
2023-03-06T07:59:43.922Z,4.19
2023-03-06T08:14:43.905Z,4.3
2023-03-06T08:19:43.910Z,4.68
2023-03-06T08:24:43.900Z,4.93
2023-03-06T08:29:53.929Z,4.98
2023-03-06T08:34:43.927Z,5.27
2023-03-06T08:39:43.921Z,5.43
2023-03-06T08:44:43.891Z,5.47
2023-03-06T08:49:43.868Z,5.55
2023-03-06T08:59:43.871Z,5.5
2023-03-06T09:19:43.860Z,5.64
2023-03-06T09:29:43.862Z,5.96
2023-03-06T09:34:43.861Z,6.05
2023-03-06T09:39:44.930Z,6.18
2023-03-06T09:44:43.884Z,6.42
2023-03-06T09:49:43.884Z,6.68
2023-03-06T09:54:43.935Z,6.42
2023-03-06T09:59:43.850Z,6.32
2023-03-06T10:04:43.864Z,5.99
2023-03-06T10:09:43.816Z,5.91
2023-03-06T10:14:53.829Z,5.79
2023-03-06T10:19:43.873Z,6.09
2023-03-06T10:24:43.824Z,6.16
2023-03-06T10:29:53.050Z,6.46
2023-03-06T10:34:43.875Z,6.21
2023-03-06T10:39:43.816Z,6.35
2023-03-06T10:44:43.853Z,6.52
2023-03-06T10:49:43.823Z,6.32
2023-03-06T10:54:43.793Z,6.49
2023-03-06T10:59:43.801Z,6.59
2023-03-06T11:04:43.897Z,6.41
2023-03-06T11:09:43.833Z,6.32
2023-03-06T11:14:43.822Z,6.24
2023-03-06T11:24:43.815Z,6.37
2023-03-06T11:29:43.805Z,6.33
2023-03-06T11:34:43.797Z,6.38
2023-03-06T11:39:43.794Z,6.15
2023-03-06T11:44:43.756Z,6.33
2023-03-06T11:49:43.752Z,6.51
2023-03-06T11:54:43.728Z,6.46
2023-03-06T11:59:43.747Z,6.29
2023-03-06T12:04:43.809Z,6.35
2023-03-06T12:09:43.764Z,6.42
2023-03-06T12:14:53.809Z,6.16
2023-03-06T12:19:43.824Z,5.9
2023-03-06T12:24:43.714Z,5.35
2023-03-06T12:39:43.798Z,4.85
2023-03-06T12:44:43.703Z,4.89
2023-03-06T12:49:43.701Z,4.76
2023-03-06T12:54:43.730Z,4.63
2023-03-06T12:59:43.813Z,4.57
2023-03-06T13:04:53.720Z,4.43
2023-03-06T13:09:43.760Z,4.41
2023-03-06T13:14:52.536Z,4.5
2023-03-06T13:19:43.714Z,4.65
2023-03-06T13:24:43.690Z,4.85
2023-03-06T13:29:53.720Z,5.17
2023-03-06T13:34:43.750Z,5.16
2023-03-06T13:39:43.716Z,5.19
2023-03-06T13:44:43.695Z,5.01
2023-03-06T13:49:43.933Z,4.89
2023-03-06T13:54:43.646Z,4.89
2023-03-06T13:59:43.662Z,4.79
2023-03-06T14:04:43.693Z,4.65
2023-03-06T14:09:53.718Z,4.63
2023-03-06T14:14:43.658Z,4.6
2023-03-06T14:19:43.640Z,4.57
2023-03-06T14:24:43.644Z,4.48
2023-03-06T14:29:43.643Z,4.48
2023-03-06T14:34:43.666Z,4.39
2023-03-06T14:39:43.670Z,4.33
2023-03-06T14:44:43.729Z,4.27
2023-03-06T14:49:43.631Z,4.2
2023-03-06T14:54:43.608Z,4.2
2023-03-06T14:59:43.618Z,4.19
2023-03-06T15:04:43.643Z,4.2
2023-03-06T15:09:43.657Z,4.2
2023-03-06T15:24:53.653Z,4.19
2023-03-06T15:34:43.706Z,4.2
2023-03-06T15:39:43.726Z,4.19
2023-03-06T15:44:43.625Z,4.2
2023-03-06T15:54:43.568Z,4.2
2023-03-06T16:04:43.566Z,4.2
2023-03-06T16:24:43.553Z,4.07
2023-03-06T16:49:43.623Z,3.71
2023-03-06T16:54:44.641Z,3.61
2023-03-06T16:59:43.542Z,3.52
2023-03-06T17:09:44.006Z,3.48
2023-03-06T17:14:43.534Z,3.38
2023-03-06T17:19:43.515Z,3.33
2023-03-06T17:24:43.599Z,3.27
2023-03-06T17:29:43.527Z,3.22
2023-03-06T17:34:43.499Z,3.16
2023-03-06T17:39:43.563Z,3.11
2023-03-06T17:44:43.599Z,3.08
2023-03-06T17:49:43.505Z,3.04
2023-03-06T17:54:43.507Z,3
2023-03-06T17:59:43.494Z,2.95
2023-03-06T18:04:53.634Z,2.89
2023-03-06T18:09:43.553Z,2.81
2023-03-06T18:14:43.508Z,2.79
2023-03-06T18:19:43.544Z,2.77
2023-03-06T18:24:53.665Z,2.74
2023-03-06T18:29:53.464Z,2.74
2023-03-06T18:34:43.467Z,2.68
2023-03-06T18:39:43.815Z,2.64
2023-03-06T18:44:43.523Z,2.62
2023-03-06T18:49:44.301Z,2.61
2023-03-06T18:54:43.518Z,2.57
2023-03-06T18:59:43.512Z,2.49
2023-03-06T19:04:43.502Z,2.39
2023-03-06T19:09:43.464Z,2.32
2023-03-06T19:14:53.465Z,2.3
2023-03-06T19:19:43.497Z,2.2
2023-03-06T19:24:43.502Z,2.12
2023-03-06T19:29:43.556Z,2.07
2023-03-06T19:34:43.512Z,1.99
2023-03-06T19:39:43.464Z,1.91
2023-03-06T19:44:43.503Z,1.85
2023-03-06T19:49:43.446Z,1.8
2023-03-06T19:54:43.438Z,1.78
2023-03-06T19:59:43.698Z,1.78
2023-03-06T20:04:44.027Z,1.75
2023-03-06T20:09:43.539Z,1.72
2023-03-06T20:14:43.512Z,1.7
2023-03-06T20:19:43.561Z,1.7
2023-03-06T20:24:43.536Z,1.69
2023-03-06T20:29:43.427Z,1.7
2023-03-06T20:34:43.623Z,1.67
2023-03-06T20:39:43.445Z,1.64
2023-03-06T20:44:53.435Z,1.63
2023-03-06T20:49:43.446Z,1.61
2023-03-06T20:54:43.453Z,1.59
2023-03-06T20:59:43.407Z,1.59
2023-03-06T21:04:43.550Z,1.59
2023-03-06T21:09:43.452Z,1.61
2023-03-06T21:14:43.449Z,1.62
2023-03-06T21:19:43.483Z,1.62
2023-03-06T21:24:43.483Z,1.64
2023-03-06T21:29:43.862Z,1.67
2023-03-06T21:34:43.682Z,1.68
2023-03-06T21:39:43.489Z,1.68
2023-03-06T21:44:44.434Z,1.68
2023-03-06T21:49:43.601Z,1.67
2023-03-06T21:54:43.981Z,1.67
2023-03-06T21:59:43.382Z,1.67
2023-03-06T22:04:43.502Z,1.69
2023-03-06T22:09:43.513Z,1.7
2023-03-06T22:14:43.425Z,1.72
2023-03-06T22:19:43.737Z,1.75
2023-03-06T22:24:43.403Z,1.77
2023-03-06T22:29:43.394Z,1.78
2023-03-06T22:34:43.468Z,1.78
2023-03-06T22:44:53.418Z,1.78
2023-03-06T22:49:43.430Z,1.78
2023-03-06T22:54:43.342Z,1.78
2023-03-06T22:59:43.814Z,1.78
2023-03-06T23:24:43.381Z,1.78
2023-03-06T23:34:43.327Z,1.78
2023-03-06T23:44:43.318Z,1.78
2023-03-06T23:59:43.396Z,1.75
